createdAt,value
2023-02-17T00:01:15.464Z,23.45
2023-02-17T00:03:42.315Z,20.52
2023-02-17T00:06:10.375Z,19.48
2023-02-17T00:08:37.396Z,19.60
2023-02-17T00:11:04.336Z,19.05
2023-02-17T00:13:30.888Z,18.65
2023-02-17T00:15:57.350Z,18.10
2023-02-17T00:18:27.040Z,19.17
2023-02-17T00:20:53.477Z,16.75
2023-02-17T00:23:19.970Z,18.52
2023-02-17T00:25:46.481Z,17.38
2023-02-17T00:28:12.899Z,19.67
2023-02-17T00:30:47.171Z,19.92
2023-02-17T00:33:13.678Z,19.27
2023-02-17T00:35:41.650Z,19.83
2023-02-17T00:38:11.357Z,16.60
2023-02-17T00:40:38.972Z,15.80
2023-02-17T00:43:05.861Z,18.00
2023-02-17T00:45:32.402Z,20.05
2023-02-17T00:47:59.002Z,16.27
2023-02-17T00:50:25.528Z,17.63
2023-02-17T00:52:52.018Z,18.15
2023-02-17T00:55:18.504Z,18.10
2023-02-17T00:57:45.012Z,18.73
2023-02-17T01:00:12.207Z,18.58
2023-02-17T01:02:38.796Z,16.65
2023-02-17T01:05:06.850Z,14.05
2023-02-17T01:07:33.369Z,18.95
2023-02-17T01:10:04.232Z,15.88
2023-02-17T01:12:30.921Z,17.25
2023-02-17T01:15:00.644Z,17.02
2023-02-17T01:17:29.818Z,15.73
2023-02-17T01:19:57.770Z,17.63
2023-02-17T01:22:24.287Z,17.48
2023-02-17T01:24:50.816Z,17.33
2023-02-17T01:27:18.619Z,16.88
2023-02-17T01:29:46.438Z,17.20
2023-02-17T01:32:12.958Z,15.05
2023-02-17T01:34:41.482Z,15.23
2023-02-17T01:37:07.967Z,16.73
2023-02-17T01:39:35.500Z,15.65
2023-02-17T01:42:01.966Z,16.25
2023-02-17T01:44:32.262Z,16.75
2023-02-17T01:46:58.872Z,15.88
2023-02-17T01:49:37.983Z,13.70
2023-02-17T01:52:04.488Z,14.25
2023-02-17T01:54:43.870Z,17.42
2023-02-17T01:57:12.346Z,16.58
2023-02-17T01:59:40.868Z,17.90
2023-02-17T02:02:08.229Z,16.75
2023-02-17T02:04:37.776Z,15.70
2023-02-17T02:07:10.179Z,16.27
2023-02-17T02:09:41.004Z,16.40
2023-02-17T02:12:24.188Z,16.48
2023-02-17T02:14:52.478Z,16.13
2023-02-17T02:17:39.577Z,13.85
2023-02-17T02:20:12.059Z,15.82
2023-02-17T02:22:50.492Z,15.95
2023-02-17T02:25:54.146Z,16.65
2023-02-17T02:28:53.068Z,16.05
2023-02-17T02:31:26.959Z,17.35
2023-02-17T02:34:08.707Z,17.77
2023-02-17T02:36:58.701Z,15.20
2023-02-17T02:39:30.328Z,19.38
2023-02-17T02:42:02.022Z,17.50
2023-02-17T02:44:28.528Z,16.48
2023-02-17T02:47:00.162Z,15.50
2023-02-17T02:49:27.837Z,17.77
2023-02-17T02:52:19.963Z,15.73
2023-02-17T02:57:42.869Z,16.27
2023-02-17T03:00:30.583Z,15.90
2023-02-17T03:03:13.034Z,17.55
2023-02-17T03:05:48.731Z,15.50
2023-02-17T03:08:24.257Z,16.20
2023-02-17T03:10:54.224Z,17.50
2023-02-17T03:13:21.503Z,16.90
2023-02-17T03:15:48.476Z,15.48
2023-02-17T03:18:17.581Z,15.98
2023-02-17T03:20:51.998Z,16.35
2023-02-17T03:23:18.687Z,16.58
2023-02-17T03:25:45.216Z,17.15
2023-02-17T03:28:13.980Z,15.20
2023-02-17T03:30:41.017Z,15.68
2023-02-17T03:33:08.603Z,15.07
2023-02-17T03:35:35.169Z,14.18
2023-02-17T03:38:02.467Z,13.68
2023-02-17T03:40:28.931Z,13.30
2023-02-17T03:42:57.160Z,12.10
2023-02-17T03:45:23.626Z,16.63
2023-02-17T03:47:58.044Z,16.25
2023-02-17T03:50:28.474Z,15.52
2023-02-17T03:52:54.905Z,15.48
2023-02-17T03:55:21.416Z,16.13
2023-02-17T03:57:47.929Z,13.77
2023-02-17T04:00:14.915Z,14.77
2023-02-17T04:02:44.175Z,15.65
2023-02-17T04:05:11.819Z,14.40
2023-02-17T04:07:38.357Z,17.98
2023-02-17T04:10:07.748Z,18.17
2023-02-17T04:12:35.558Z,17.20
2023-02-17T04:15:02.213Z,16.60
2023-02-17T04:17:28.693Z,13.88
2023-02-17T04:19:56.200Z,13.70
2023-02-17T04:22:22.749Z,16.80
2023-02-17T04:24:49.334Z,18.40
2023-02-17T04:27:15.949Z,17.73
2023-02-17T04:29:42.666Z,15.43
2023-02-17T04:32:09.252Z,16.55
2023-02-17T04:34:36.947Z,16.10
2023-02-17T04:37:03.416Z,14.68
2023-02-17T04:39:29.917Z,15.68
2023-02-17T04:42:02.495Z,16.88
2023-02-17T04:44:28.948Z,13.80
2023-02-17T04:46:55.432Z,16.70
2023-02-17T04:49:22.926Z,13.35
2023-02-17T04:51:49.403Z,14.43
2023-02-17T04:54:15.843Z,14.85
2023-02-17T04:56:42.344Z,14.82
2023-02-17T04:59:08.909Z,13.27
2023-02-17T05:01:35.468Z,13.02
2023-02-17T05:04:08.747Z,14.48
2023-02-17T05:06:35.207Z,13.50
2023-02-17T05:09:01.974Z,12.75
2023-02-17T05:11:28.417Z,12.00
2023-02-17T05:13:54.952Z,11.90
2023-02-17T05:16:23.526Z,13.68
2023-02-17T05:18:50.081Z,13.63
2023-02-17T05:21:16.527Z,13.70
2023-02-17T05:23:49.194Z,14.90
2023-02-17T05:26:15.771Z,19.15
2023-02-17T05:28:43.259Z,14.15
2023-02-17T05:31:10.795Z,13.93
2023-02-17T05:33:37.341Z,13.32
2023-02-17T05:36:06.158Z,13.00
2023-02-17T05:38:34.716Z,13.65
2023-02-17T05:41:01.108Z,14.90
2023-02-17T05:43:27.840Z,15.18
2023-02-17T05:45:54.316Z,13.98
2023-02-17T05:48:21.148Z,15.68
2023-02-17T05:50:47.762Z,15.82
2023-02-17T05:53:14.201Z,13.90
2023-02-17T05:55:40.980Z,15.35
2023-02-17T05:58:09.451Z,12.93
2023-02-17T06:00:35.997Z,16.38
2023-02-17T06:03:02.609Z,13.57
2023-02-17T06:05:29.117Z,12.32
2023-02-17T06:07:55.572Z,14.82
2023-02-17T06:10:22.027Z,13.85
2023-02-17T06:12:49.504Z,12.98
2023-02-17T06:15:16.176Z,12.32
2023-02-17T06:17:42.650Z,13.40
2023-02-17T06:20:09.961Z,13.43
2023-02-17T06:22:36.557Z,14.88
2023-02-17T06:25:03.181Z,14.40
2023-02-17T06:27:29.596Z,11.10
2023-02-17T06:29:56.304Z,14.50
2023-02-17T06:32:23.043Z,13.20
2023-02-17T06:34:49.486Z,13.90
2023-02-17T06:37:16.071Z,13.70
2023-02-17T06:39:42.552Z,15.32
2023-02-17T06:42:11.210Z,16.05
2023-02-17T06:44:37.827Z,13.55
2023-02-17T06:47:04.840Z,13.05
2023-02-17T06:49:32.374Z,12.07
2023-02-17T06:51:58.859Z,9.52
2023-02-17T06:54:33.286Z,9.93
2023-02-17T06:56:59.817Z,10.07
2023-02-17T06:59:26.724Z,10.80
2023-02-17T07:01:53.284Z,12.05
2023-02-17T07:04:19.917Z,8.55
2023-02-17T07:06:46.367Z,11.30
2023-02-17T07:09:14.171Z,6.15
2023-02-17T07:11:41.941Z,6.97
2023-02-17T07:14:08.485Z,6.05
2023-02-17T07:16:35.040Z,5.85
2023-02-17T07:19:01.667Z,5.65
2023-02-17T07:21:28.164Z,5.70
2023-02-17T07:23:55.733Z,6.93
2023-02-17T07:26:22.390Z,6.00
2023-02-17T07:28:48.807Z,6.53
2023-02-17T07:31:17.333Z,5.72
2023-02-17T07:33:45.695Z,5.97
2023-02-17T07:36:15.069Z,5.45
2023-02-17T07:38:42.281Z,5.80
2023-02-17T07:41:14.697Z,6.97
2023-02-17T07:43:41.958Z,6.45
2023-02-17T07:46:10.401Z,7.05
2023-02-17T07:48:37.709Z,7.30
2023-02-17T07:51:10.610Z,9.15
2023-02-17T07:53:38.634Z,7.35
2023-02-17T07:56:11.376Z,6.43
2023-02-17T07:58:39.821Z,7.13
2023-02-17T08:01:17.792Z,6.20
2023-02-17T08:03:45.132Z,5.57
2023-02-17T08:06:15.739Z,5.10
2023-02-17T08:09:01.390Z,4.78
2023-02-17T08:11:48.830Z,4.57
2023-02-17T08:14:16.045Z,5.43
2023-02-17T08:16:42.733Z,5.57
2023-02-17T08:19:09.490Z,4.47
2023-02-17T08:21:35.965Z,5.03
2023-02-17T08:24:03.006Z,4.78
2023-02-17T08:26:29.756Z,5.38
2023-02-17T08:28:56.298Z,5.07
2023-02-17T08:31:26.442Z,5.20
2023-02-17T08:33:53.554Z,4.47
2023-02-17T08:36:22.275Z,4.38
2023-02-17T08:38:56.885Z,3.97
2023-02-17T08:41:35.438Z,4.68
2023-02-17T08:44:06.585Z,3.90
2023-02-17T08:46:35.311Z,3.55
2023-02-17T08:49:09.183Z,3.35
2023-02-17T08:51:37.027Z,3.58
2023-02-17T08:54:12.339Z,3.13
2023-02-17T08:56:40.191Z,3.90
2023-02-17T08:59:08.920Z,3.75
2023-02-17T09:01:37.525Z,3.47
2023-02-17T09:04:05.884Z,3.08
2023-02-17T09:06:52.952Z,3.60
2023-02-17T09:09:26.963Z,3.10
2023-02-17T09:11:55.618Z,3.30
2023-02-17T09:14:25.214Z,3.20
2023-02-17T09:16:52.456Z,3.20
2023-02-17T09:19:19.250Z,3.78
2023-02-17T09:21:45.834Z,3.10
2023-02-17T09:24:12.436Z,3.40
2023-02-17T09:26:39.086Z,3.08
2023-02-17T09:29:06.087Z,3.00
2023-02-17T09:31:35.230Z,3.10
2023-02-17T09:34:07.187Z,3.30
2023-02-17T09:39:04.456Z,3.13
2023-02-17T09:41:38.036Z,2.33
2023-02-17T09:44:24.705Z,3.10
2023-02-17T09:47:31.913Z,3.05
2023-02-17T09:50:07.210Z,2.83
2023-02-17T09:52:39.851Z,2.50
2023-02-17T09:55:21.234Z,2.42
2023-02-17T09:57:57.597Z,2.72
2023-02-17T10:00:47.049Z,2.20
2023-02-17T10:03:36.158Z,2.10
2023-02-17T10:06:22.001Z,2.28
2023-02-17T10:08:54.101Z,2.55
2023-02-17T10:11:33.882Z,2.20
2023-02-17T10:14:10.142Z,2.10
2023-02-17T10:16:49.182Z,1.90
2023-02-17T10:19:23.048Z,2.28
2023-02-17T10:21:58.101Z,2.42
2023-02-17T10:24:25.171Z,2.03
2023-02-17T10:27:28.540Z,1.95
2023-02-17T10:30:30.937Z,2.45
2023-02-17T10:33:04.591Z,1.88
2023-02-17T10:35:34.022Z,2.05
2023-02-17T10:38:15.783Z,1.75
2023-02-17T10:40:45.354Z,2.38
2023-02-17T10:43:25.125Z,1.90
2023-02-17T10:45:51.756Z,2.30
2023-02-17T10:48:28.069Z,2.17
2023-02-17T10:50:58.604Z,1.58
2023-02-17T10:53:29.714Z,2.00
2023-02-17T10:56:02.363Z,2.35
2023-02-17T10:58:33.972Z,2.10
2023-02-17T11:01:02.781Z,2.20
2023-02-17T11:03:31.886Z,2.00
2023-02-17T11:06:22.415Z,2.00
2023-02-17T11:08:48.949Z,2.13
2023-02-17T11:11:24.237Z,2.03
2023-02-17T11:14:01.055Z,1.73
2023-02-17T11:16:45.790Z,2.05
2023-02-17T11:19:27.827Z,2.33
2023-02-17T11:21:58.457Z,1.98
2023-02-17T11:24:26.562Z,2.00
2023-02-17T11:27:03.456Z,2.15
2023-02-17T11:29:33.210Z,1.73
2023-02-17T11:32:09.037Z,2.05
2023-02-17T11:34:39.476Z,2.40
2023-02-17T11:37:12.072Z,2.03
2023-02-17T11:39:43.993Z,2.00
2023-02-17T11:42:34.423Z,2.22
2023-02-17T11:45:22.119Z,1.98
2023-02-17T11:48:08.507Z,2.30
2023-02-17T12:08:22.349Z,2.40
2023-02-17T12:11:00.961Z,2.53
2023-02-17T12:13:39.684Z,2.50
2023-02-17T12:16:06.326Z,2.47
2023-02-17T12:19:15.628Z,2.25
2023-02-17T12:22:18.942Z,2.20
2023-02-17T12:25:10.034Z,2.22
2023-02-17T12:27:54.786Z,2.58
2023-02-17T12:30:38.687Z,2.65
2023-02-17T12:33:33.302Z,2.85
2023-02-17T12:36:08.057Z,2.42
2023-02-17T12:38:41.785Z,2.20
2023-02-17T12:41:36.358Z,2.00
2023-02-17T12:44:13.372Z,2.13
2023-02-17T12:46:46.142Z,2.53
2023-02-17T12:49:27.976Z,2.78
2023-02-17T12:54:34.293Z,2.30
2023-02-17T12:57:25.042Z,2.13
2023-02-17T12:59:53.797Z,2.10
2023-02-17T13:02:24.216Z,2.60
2023-02-17T13:04:53.576Z,2.30
2023-02-17T13:07:37.589Z,1.90
2023-02-17T13:10:06.049Z,1.58
2023-02-17T13:12:40.407Z,1.92
2023-02-17T13:15:27.029Z,1.70
2023-02-17T13:17:55.179Z,1.98
2023-02-17T13:20:50.910Z,1.70
2023-02-17T13:23:38.924Z,2.03
2023-02-17T13:26:24.456Z,2.15
2023-02-17T13:28:55.710Z,1.65
2023-02-17T13:31:26.296Z,2.30
2023-02-17T13:33:56.149Z,2.05
2023-02-17T13:36:43.014Z,1.75
2023-02-17T13:39:32.984Z,1.80
2023-02-17T13:42:01.121Z,1.70
2023-02-17T13:44:40.003Z,1.70
2023-02-17T13:47:14.717Z,2.05
2023-02-17T13:49:41.180Z,1.98
2023-02-17T13:52:16.262Z,1.95
2023-02-17T13:54:54.233Z,1.80
2023-02-17T13:57:31.441Z,2.00
2023-02-17T14:00:13.891Z,2.10
2023-02-17T14:03:21.079Z,1.73
2023-02-17T14:05:49.793Z,1.65
2023-02-17T14:08:42.184Z,1.63
2023-02-17T14:11:19.708Z,1.50
2023-02-17T14:13:49.276Z,1.60
2023-02-17T14:16:37.091Z,1.45
2023-02-17T14:19:19.338Z,1.65
2023-02-17T14:21:57.215Z,1.83
2023-02-17T14:24:30.194Z,1.90
2023-02-17T14:27:00.199Z,1.85
2023-02-17T14:29:37.465Z,1.70
2023-02-17T14:32:29.512Z,1.60
2023-02-17T14:37:43.622Z,2.10
2023-02-17T14:40:27.249Z,2.00
2023-02-17T14:42:53.715Z,2.10
2023-02-17T14:45:22.752Z,1.88
2023-02-17T14:47:49.414Z,1.70
2023-02-17T14:50:17.518Z,1.80
2023-02-17T14:52:46.593Z,2.00
2023-02-17T14:55:19.770Z,2.05
2023-02-17T14:57:47.342Z,1.60
2023-02-17T15:00:15.853Z,1.98
2023-02-17T15:02:42.410Z,1.70
2023-02-17T15:05:09.015Z,2.22
2023-02-17T15:07:36.639Z,2.10
2023-02-17T15:10:27.139Z,1.77
2023-02-17T15:12:53.983Z,2.10
2023-02-17T15:15:20.829Z,2.20
2023-02-17T15:17:55.518Z,2.08
2023-02-17T15:20:22.510Z,1.88
2023-02-17T15:22:52.839Z,1.67
2023-02-17T15:25:24.281Z,1.40
2023-02-17T15:27:51.099Z,2.00
2023-02-17T15:30:31.109Z,1.75
2023-02-17T15:32:57.842Z,1.67
2023-02-17T15:35:26.870Z,1.80
2023-02-17T15:37:53.800Z,1.77
2023-02-17T15:40:27.885Z,1.75
2023-02-17T15:42:57.398Z,2.00
2023-02-17T15:45:24.862Z,1.77
2023-02-17T15:48:04.008Z,1.92
2023-02-17T15:50:30.718Z,2.00
2023-02-17T15:52:57.176Z,2.10
2023-02-17T15:55:30.617Z,1.95
2023-02-17T15:58:01.703Z,2.17
2023-02-17T16:00:35.614Z,2.13
2023-02-17T16:03:02.607Z,1.80
2023-02-17T16:05:31.343Z,1.58
2023-02-17T16:08:04.134Z,1.33
2023-02-17T16:10:32.305Z,1.10
2023-02-17T16:13:04.260Z,1.35
2023-02-17T16:15:33.042Z,1.30
2023-02-17T16:17:59.970Z,1.38
2023-02-17T16:20:29.870Z,1.40
2023-02-17T16:22:56.597Z,1.30
2023-02-17T16:25:23.624Z,1.50
2023-02-17T16:27:53.467Z,1.40
2023-02-17T16:30:20.401Z,1.20
2023-02-17T16:32:47.858Z,1.20
2023-02-17T16:35:21.808Z,1.40
2023-02-17T16:38:19.861Z,1.17
2023-02-17T16:40:51.983Z,1.50
2023-02-17T16:43:26.835Z,1.42
2023-02-17T16:45:57.209Z,1.50
2023-02-17T16:48:29.201Z,1.35
2023-02-17T16:51:01.933Z,1.50
2023-02-17T16:53:30.489Z,1.38
2023-02-17T16:55:57.013Z,1.20
2023-02-17T16:58:25.876Z,1.40
2023-02-17T17:00:54.339Z,1.70
2023-02-17T17:03:23.975Z,1.67
2023-02-17T17:05:52.586Z,1.58
2023-02-17T17:08:22.505Z,1.20
2023-02-17T17:10:49.685Z,1.30
2023-02-17T17:13:16.760Z,1.20
2023-02-17T17:15:45.271Z,1.58
2023-02-17T17:18:20.361Z,1.52
2023-02-17T17:20:47.864Z,1.30
2023-02-17T17:23:15.000Z,1.30
2023-02-17T17:25:46.626Z,1.67
2023-02-17T17:30:40.451Z,1.58
2023-02-17T17:33:06.974Z,1.30
2023-02-17T17:35:33.565Z,1.33
2023-02-17T17:38:00.037Z,1.15
2023-02-17T17:40:30.293Z,1.40
2023-02-17T17:42:56.935Z,1.40
2023-02-17T17:45:24.762Z,1.75
2023-02-17T17:47:51.503Z,1.30
2023-02-17T17:50:22.353Z,1.42
2023-02-17T17:53:02.849Z,1.38
2023-02-17T17:55:29.447Z,1.20
2023-02-17T17:57:56.090Z,2.17
2023-02-17T18:00:22.789Z,1.50
2023-02-17T18:02:50.264Z,1.40
2023-02-17T18:05:25.096Z,1.48
2023-02-17T18:07:53.380Z,1.60
2023-02-17T18:10:19.997Z,1.70
2023-02-17T18:12:47.991Z,1.55
2023-02-17T18:15:15.840Z,1.50
2023-02-17T18:17:43.474Z,1.52
2023-02-17T18:20:11.217Z,1.50
2023-02-17T18:22:38.020Z,1.52
2023-02-17T18:25:05.188Z,2.00
2023-02-17T18:27:38.500Z,1.80
2023-02-17T18:30:08.600Z,2.33
2023-02-17T18:32:39.490Z,1.90
2023-02-17T18:35:17.546Z,1.90
2023-02-17T18:37:46.301Z,1.77
2023-02-17T18:40:15.356Z,1.73
2023-02-17T18:42:45.413Z,2.22
2023-02-17T18:45:18.064Z,1.90
2023-02-17T18:47:45.427Z,2.30
2023-02-17T18:50:17.879Z,2.20
2023-02-17T18:52:46.523Z,2.30
2023-02-17T18:55:15.494Z,2.50
2023-02-17T18:57:45.519Z,2.40
2023-02-17T19:00:15.135Z,2.72
2023-02-17T19:02:44.788Z,2.05
2023-02-17T19:05:12.050Z,2.80
2023-02-17T19:07:38.516Z,2.50
2023-02-17T19:10:06.042Z,2.55
2023-02-17T19:12:34.141Z,2.67
2023-02-17T19:15:00.620Z,2.85
2023-02-17T19:17:27.124Z,2.30
2023-02-17T19:19:55.735Z,2.67
2023-02-17T19:22:22.287Z,2.72
2023-02-17T19:24:54.280Z,2.40
2023-02-17T19:27:21.111Z,3.15
2023-02-17T19:29:47.625Z,2.72
2023-02-17T19:32:14.125Z,2.80
2023-02-17T19:34:40.921Z,4.38
2023-02-17T19:37:07.399Z,3.05
2023-02-17T19:39:36.222Z,3.05
2023-02-17T19:42:03.254Z,2.78
2023-02-17T19:44:31.317Z,2.58
2023-02-17T19:46:57.967Z,3.75
2023-02-17T19:49:25.274Z,3.00
2023-02-17T19:51:53.379Z,3.72
2023-02-17T19:54:19.823Z,3.13
2023-02-17T19:56:49.412Z,5.03
2023-02-17T19:59:16.361Z,2.72
2023-02-17T20:01:44.091Z,2.95
2023-02-17T20:04:11.593Z,3.42
2023-02-17T20:06:40.929Z,2.80
2023-02-17T20:09:13.348Z,2.50
2023-02-17T20:11:41.339Z,3.10
2023-02-17T20:14:07.993Z,2.95
2023-02-17T20:16:34.540Z,3.00
2023-02-17T20:19:02.917Z,3.00
2023-02-17T20:21:35.531Z,2.83
2023-02-17T20:24:02.640Z,2.95
2023-02-17T20:26:31.649Z,2.67
2023-02-17T20:28:58.799Z,3.20
2023-02-17T20:31:25.985Z,2.63
2023-02-17T20:33:52.868Z,2.70
2023-02-17T20:36:21.877Z,2.92
2023-02-17T20:38:53.348Z,3.05
2023-02-17T20:41:22.382Z,3.03
2023-02-17T20:43:50.458Z,3.20
2023-02-17T20:46:23.243Z,2.90
2023-02-17T20:48:50.230Z,3.03
2023-02-17T20:51:17.919Z,3.10
2023-02-17T20:53:44.543Z,3.28
2023-02-17T20:56:34.364Z,3.20
2023-02-17T20:59:02.598Z,3.75
2023-02-17T21:01:29.399Z,3.90
2023-02-17T21:03:56.529Z,3.55
2023-02-17T21:06:28.920Z,3.05
2023-02-17T21:08:58.269Z,3.70
2023-02-17T21:11:25.563Z,3.97
2023-02-17T21:13:52.229Z,3.78
2023-02-17T21:16:26.974Z,2.70
2023-02-17T21:18:54.065Z,3.10
2023-02-17T21:21:20.757Z,2.90
2023-02-17T21:23:48.114Z,2.90
2023-02-17T21:26:16.850Z,3.20
2023-02-17T21:28:49.590Z,3.00
2023-02-17T21:31:18.505Z,2.70
2023-02-17T21:33:45.402Z,2.90
2023-02-17T21:36:14.858Z,3.20
2023-02-17T21:38:44.313Z,3.33
2023-02-17T21:41:14.619Z,3.20
2023-02-17T21:43:59.520Z,3.28
2023-02-17T21:46:27.947Z,3.22
2023-02-17T21:48:55.858Z,3.08
2023-02-17T21:51:22.359Z,3.10
2023-02-17T21:53:49.087Z,3.13
2023-02-17T21:56:15.852Z,3.25
2023-02-17T21:58:51.003Z,3.28
2023-02-17T22:01:19.090Z,2.85
2023-02-17T22:03:46.236Z,3.20
2023-02-17T22:06:22.511Z,2.97
2023-02-17T22:08:49.354Z,3.15
2023-02-17T22:11:21.481Z,2.70
2023-02-17T22:13:48.515Z,3.05
2023-02-17T22:16:15.438Z,3.65
2023-02-17T22:18:43.915Z,2.92
2023-02-17T22:21:12.922Z,3.85
2023-02-17T22:23:40.727Z,3.35
2023-02-17T22:26:09.958Z,3.70
2023-02-17T22:28:36.878Z,3.25
2023-02-17T22:31:09.008Z,3.28
2023-02-17T22:33:35.536Z,3.80
2023-02-17T22:36:08.259Z,4.00
2023-02-17T22:38:35.414Z,3.85
2023-02-17T22:41:10.861Z,3.85
2023-02-17T22:43:39.338Z,3.65
2023-02-17T22:46:06.757Z,3.40
2023-02-17T22:48:36.072Z,3.85
2023-02-17T22:51:26.948Z,3.50
2023-02-17T22:53:53.582Z,4.15
2023-02-17T22:56:22.040Z,4.10
2023-02-17T22:58:50.537Z,4.03
2023-02-17T23:01:20.638Z,4.10
2023-02-17T23:03:54.607Z,4.32
2023-02-17T23:06:27.559Z,4.28
2023-02-17T23:08:54.882Z,4.05
2023-02-17T23:11:43.046Z,3.38
2023-02-17T23:14:11.023Z,4.10
2023-02-17T23:16:37.743Z,4.43
2023-02-17T23:19:14.336Z,4.30
2023-02-17T23:21:46.217Z,4.28
2023-02-17T23:24:15.044Z,4.50
2023-02-17T23:26:41.576Z,5.43
2023-02-17T23:29:09.546Z,3.85
2023-02-17T23:31:42.435Z,4.60
2023-02-17T23:34:11.107Z,5.30
2023-02-17T23:36:43.075Z,4.53
2023-02-17T23:39:10.311Z,5.82
2023-02-17T23:41:37.991Z,5.13
2023-02-17T23:44:06.951Z,5.30
2023-02-17T23:46:34.260Z,4.93
2023-02-17T23:49:01.136Z,4.90
2023-02-17T23:51:27.582Z,4.80
2023-02-17T23:53:54.307Z,5.43
2023-02-17T23:56:26.426Z,5.85
2023-02-17T23:58:54.237Z,5.53
